sensor_id;sensor_type;location;lat;lon;timestamp;pressure;altitude;pressure_sealevel;temperature;humidity
33913;BME280;20200;52.084;5.224;2022-07-22T00:01:35;102130.0;;;17.61;81.63
33913;BME280;20200;52.084;5.224;2022-07-22T00:03:21;102130.0;;;17.5;82.31
33913;BME280;20200;52.084;5.224;2022-07-22T00:05:09;102132.0;;;17.56;81.88
33913;BME280;20200;52.084;5.224;2022-07-22T00:06:56;102133.0;;;17.54;82.08
33913;BME280;20200;52.084;5.224;2022-07-22T00:10:28;102128.0;;;17.59;81.72
33913;BME280;20200;52.084;5.224;2022-07-22T00:12:15;102130.0;;;17.56;81.86
33913;BME280;20200;52.084;5.224;2022-07-22T00:14:01;102130.0;;;17.55;81.61
33913;BME280;20200;52.084;5.224;2022-07-22T00:15:48;102127.0;;;17.43;81.77
33913;BME280;20200;52.084;5.224;2022-07-22T00:17:36;102125.0;;;17.53;81.27
33913;BME280;20200;52.084;5.224;2022-07-22T00:21:13;102123.0;;;17.62;81.28
33913;BME280;20200;52.084;5.224;2022-07-22T00:22:59;102121.0;;;17.66;80.94
33913;BME280;20200;52.084;5.224;2022-07-22T00:24:46;102122.0;;;17.75;80.61
33913;BME280;20200;52.084;5.224;2022-07-22T00:26:32;102118.0;;;17.52;81.5
33913;BME280;20200;52.084;5.224;2022-07-22T00:28:19;102118.0;;;17.53;81.41
33913;BME280;20200;52.084;5.224;2022-07-22T00:30:07;102116.0;;;17.59;80.89
33913;BME280;20200;52.084;5.224;2022-07-22T00:33:42;102118.0;;;17.68;80.53
33913;BME280;20200;52.084;5.224;2022-07-22T00:35:28;102121.0;;;17.78;80.16
33913;BME280;20200;52.084;5.224;2022-07-22T00:37:15;102121.0;;;17.77;80.16
33913;BME280;20200;52.084;5.224;2022-07-22T00:39:02;102120.0;;;17.77;80.19
33913;BME280;20200;52.084;5.224;2022-07-22T00:40:49;102122.0;;;17.75;80.06
33913;BME280;20200;52.084;5.224;2022-07-22T00:42:36;102118.0;;;17.7;80.38
33913;BME280;20200;52.084;5.224;2022-07-22T00:46:09;102119.0;;;17.87;79.8
33913;BME280;20200;52.084;5.224;2022-07-22T00:47:55;102119.0;;;17.86;80.44
33913;BME280;20200;52.084;5.224;2022-07-22T00:49:41;102116.0;;;17.81;80.02
33913;BME280;20200;52.084;5.224;2022-07-22T00:51:29;102111.0;;;17.81;79.53
33913;BME280;20200;52.084;5.224;2022-07-22T00:53:16;102110.0;;;17.84;79.41
33913;BME280;20200;52.084;5.224;2022-07-22T00:58:39;102110.0;;;17.84;79.05
33913;BME280;20200;52.084;5.224;2022-07-22T01:00:26;102109.0;;;17.93;79.0
33913;BME280;20200;52.084;5.224;2022-07-22T01:02:13;102107.0;;;17.87;78.92
33913;BME280;20200;52.084;5.224;2022-07-22T01:04:00;102110.0;;;17.84;79.0
33913;BME280;20200;52.084;5.224;2022-07-22T01:05:47;102113.0;;;17.77;79.22
33913;BME280;20200;52.084;5.224;2022-07-22T01:09:20;102110.0;;;17.82;78.94
33913;BME280;20200;52.084;5.224;2022-07-22T01:11:08;102107.0;;;18.02;78.22
33913;BME280;20200;52.084;5.224;2022-07-22T01:12:54;102103.0;;;17.95;78.75
33913;BME280;20200;52.084;5.224;2022-07-22T01:14:41;102105.0;;;17.93;78.84
33913;BME280;20200;52.084;5.224;2022-07-22T01:16:29;102105.0;;;17.97;78.44
33913;BME280;20200;52.084;5.224;2022-07-22T01:18:15;102105.0;;;17.87;78.63
33913;BME280;20200;52.084;5.224;2022-07-22T01:21:50;102105.0;;;17.89;78.72
33913;BME280;20200;52.084;5.224;2022-07-22T01:23:37;102105.0;;;17.89;78.69
33913;BME280;20200;52.084;5.224;2022-07-22T01:25:25;102105.0;;;17.84;79.05
33913;BME280;20200;52.084;5.224;2022-07-22T01:27:12;102103.0;;;17.91;79.08
33913;BME280;20200;52.084;5.224;2022-07-22T01:28:58;102102.0;;;17.86;78.91
33913;BME280;20200;52.084;5.224;2022-07-22T01:30:44;102102.0;;;17.81;79.83
33913;BME280;20200;52.084;5.224;2022-07-22T01:34:16;102099.0;;;17.96;79.25
33913;BME280;20200;52.084;5.224;2022-07-22T01:36:04;102102.0;;;17.97;79.3
33913;BME280;20200;52.084;5.224;2022-07-22T01:37:50;102100.0;;;17.84;79.5
33913;BME280;20200;52.084;5.224;2022-07-22T01:39:37;102100.0;;;17.7;79.55
33913;BME280;20200;52.084;5.224;2022-07-22T01:41:23;102098.0;;;17.68;79.34
33913;BME280;20200;52.084;5.224;2022-07-22T01:43:09;102100.0;;;17.77;79.11
33913;BME280;20200;52.084;5.224;2022-07-22T01:46:42;102108.0;;;17.8;78.55
33913;BME280;20200;52.084;5.224;2022-07-22T01:48:29;102107.0;;;17.64;78.97
33913;BME280;20200;52.084;5.224;2022-07-22T01:50:16;102110.0;;;17.82;78.48
33913;BME280;20200;52.084;5.224;2022-07-22T01:52:02;102105.0;;;17.81;78.02
33913;BME280;20200;52.084;5.224;2022-07-22T01:53:50;102102.0;;;17.59;78.66
33913;BME280;20200;52.084;5.224;2022-07-22T01:57:24;102096.0;;;17.7;78.47
33913;BME280;20200;52.084;5.224;2022-07-22T01:59:11;102099.0;;;17.64;78.86
33913;BME280;20200;52.084;5.224;2022-07-22T02:00:58;102097.0;;;17.61;78.78
33913;BME280;20200;52.084;5.224;2022-07-22T02:02:45;102096.0;;;17.63;78.94
33913;BME280;20200;52.084;5.224;2022-07-22T02:04:32;102092.0;;;17.5;79.56
33913;BME280;20200;52.084;5.224;2022-07-22T02:06:18;102092.0;;;17.61;79.16
33913;BME280;20200;52.084;5.224;2022-07-22T02:09:55;102094.0;;;17.72;78.63
33913;BME280;20200;52.084;5.224;2022-07-22T02:11:42;102097.0;;;17.66;78.88
33913;BME280;20200;52.084;5.224;2022-07-22T02:13:29;102094.0;;;17.78;78.49
33913;BME280;20200;52.084;5.224;2022-07-22T02:15:15;102091.0;;;17.75;78.48
33913;BME280;20200;52.084;5.224;2022-07-22T02:17:01;102083.0;;;17.75;78.42
33913;BME280;20200;52.084;5.224;2022-07-22T02:18:48;102081.0;;;17.78;78.23
33913;BME280;20200;52.084;5.224;2022-07-22T02:22:22;102083.0;;;17.7;78.42
33913;BME280;20200;52.084;5.224;2022-07-22T02:24:09;102078.0;;;17.75;78.39
33913;BME280;20200;52.084;5.224;2022-07-22T02:25:55;102076.0;;;17.7;78.62
33913;BME280;20200;52.084;5.224;2022-07-22T02:27:41;102075.0;;;17.71;78.37
33913;BME280;20200;52.084;5.224;2022-07-22T02:29:28;102076.0;;;17.77;78.3
33913;BME280;20200;52.084;5.224;2022-07-22T02:33:01;102081.0;;;17.55;78.8
33913;BME280;20200;52.084;5.224;2022-07-22T02:34:48;102075.0;;;17.61;78.56
33913;BME280;20200;52.084;5.224;2022-07-22T02:36:34;102072.0;;;17.68;78.47
33913;BME280;20200;52.084;5.224;2022-07-22T02:38:20;102073.0;;;17.77;78.16
33913;BME280;20200;52.084;5.224;2022-07-22T02:40:08;102074.0;;;17.75;78.11
33913;BME280;20200;52.084;5.224;2022-07-22T02:41:55;102068.0;;;17.7;78.05
33913;BME280;20200;52.084;5.224;2022-07-22T02:45:28;102075.0;;;17.86;77.62
33913;BME280;20200;52.084;5.224;2022-07-22T02:47:15;102080.0;;;17.77;77.52
33913;BME280;20200;52.084;5.224;2022-07-22T02:49:01;102080.0;;;17.77;77.58
33913;BME280;20200;52.084;5.224;2022-07-22T02:50:49;102084.0;;;17.84;77.41
33913;BME280;20200;52.084;5.224;2022-07-22T02:52:36;102083.0;;;17.75;77.42
33913;BME280;20200;52.084;5.224;2022-07-22T02:54:22;102078.0;;;17.7;77.75
33913;BME280;20200;52.084;5.224;2022-07-22T02:57:56;102082.0;;;17.75;78.27
33913;BME280;20200;52.084;5.224;2022-07-22T02:59:42;102082.0;;;17.75;78.11
33913;BME280;20200;52.084;5.224;2022-07-22T03:01:29;102078.0;;;17.75;77.61
33913;BME280;20200;52.084;5.224;2022-07-22T03:03:15;102072.0;;;17.68;77.84
33913;BME280;20200;52.084;5.224;2022-07-22T03:05:01;102077.0;;;17.63;77.8
33913;BME280;20200;52.084;5.224;2022-07-22T03:06:49;102071.0;;;17.72;77.67
33913;BME280;20200;52.084;5.224;2022-07-22T03:10:23;102072.0;;;17.68;77.83
33913;BME280;20200;52.084;5.224;2022-07-22T03:12:09;102074.0;;;17.53;78.27
33913;BME280;20200;52.084;5.224;2022-07-22T03:13:56;102074.0;;;17.55;78.2
33913;BME280;20200;52.084;5.224;2022-07-22T03:15:43;102074.0;;;17.61;78.12
33913;BME280;20200;52.084;5.224;2022-07-22T03:17:33;102071.0;;;17.3;79.03
33913;BME280;20200;52.084;5.224;2022-07-22T03:21:06;102068.0;;;17.5;78.78
33913;BME280;20200;52.084;5.224;2022-07-22T03:22:52;102070.0;;;17.38;78.92
33913;BME280;20200;52.084;5.224;2022-07-22T03:24:39;102073.0;;;17.18;79.5
33913;BME280;20200;52.084;5.224;2022-07-22T03:26:26;102075.0;;;17.32;79.22
33913;BME280;20200;52.084;5.224;2022-07-22T03:28:12;102076.0;;;17.38;78.97
33913;BME280;20200;52.084;5.224;2022-07-22T03:29:58;102075.0;;;17.32;79.24
33913;BME280;20200;52.084;5.224;2022-07-22T03:33:30;102080.0;;;17.2;79.8
33913;BME280;20200;52.084;5.224;2022-07-22T03:35:16;102083.0;;;17.16;79.92
33913;BME280;20200;52.084;5.224;2022-07-22T03:37:03;102082.0;;;17.29;79.74
33913;BME280;20200;52.084;5.224;2022-07-22T03:38:49;102084.0;;;17.27;79.39
33913;BME280;20200;52.084;5.224;2022-07-22T03:40:35;102086.0;;;17.34;79.08
33913;BME280;20200;52.084;5.224;2022-07-22T03:44:07;102081.0;;;17.37;78.94
33913;BME280;20200;52.084;5.224;2022-07-22T03:45:53;102080.0;;;17.27;79.05
33913;BME280;20200;52.084;5.224;2022-07-22T03:47:40;102080.0;;;17.37;78.41
33913;BME280;20200;52.084;5.224;2022-07-22T03:49:30;102080.0;;;17.47;78.11
33913;BME280;20200;52.084;5.224;2022-07-22T03:51:17;102080.0;;;17.56;77.73
33913;BME280;20200;52.084;5.224;2022-07-22T03:53:03;102078.0;;;17.55;78.12
33913;BME280;20200;52.084;5.224;2022-07-22T03:56:36;102080.0;;;17.48;78.75
33913;BME280;20200;52.084;5.224;2022-07-22T03:58:22;102078.0;;;17.46;79.0
33913;BME280;20200;52.084;5.224;2022-07-22T04:00:09;102078.0;;;17.55;79.13
33913;BME280;20200;52.084;5.224;2022-07-22T04:01:56;102077.0;;;17.52;79.5
33913;BME280;20200;52.084;5.224;2022-07-22T04:03:42;102074.0;;;17.62;78.42
33913;BME280;20200;52.084;5.224;2022-07-22T04:05:28;102071.0;;;17.62;78.24
33913;BME280;20200;52.084;5.224;2022-07-22T04:09:02;102075.0;;;17.52;78.45
33913;BME280;20200;52.084;5.224;2022-07-22T04:10:48;102075.0;;;17.52;78.3
33913;BME280;20200;52.084;5.224;2022-07-22T04:12:37;102076.0;;;17.36;76.92
33913;BME280;20200;52.084;5.224;2022-07-22T04:14:24;102078.0;;;17.25;76.53
33913;BME280;20200;52.084;5.224;2022-07-22T04:16:10;102075.0;;;17.22;76.0
33913;BME280;20200;52.084;5.224;2022-07-22T04:19:43;102074.0;;;17.12;75.56
33913;BME280;20200;52.084;5.224;2022-07-22T04:23:17;102069.0;;;17.18;73.7
33913;BME280;20200;52.084;5.224;2022-07-22T04:26:51;102076.0;;;17.21;72.38
33913;BME280;20200;52.084;5.224;2022-07-22T04:28:37;102072.0;;;17.32;71.5
33913;BME280;20200;52.084;5.224;2022-07-22T04:32:09;102075.0;;;17.36;71.08
33913;BME280;20200;52.084;5.224;2022-07-22T04:33:56;102072.0;;;17.45;71.06
33913;BME280;20200;52.084;5.224;2022-07-22T04:35:44;102076.0;;;17.5;71.09
33913;BME280;20200;52.084;5.224;2022-07-22T04:37:30;102073.0;;;17.5;71.41
33913;BME280;20200;52.084;5.224;2022-07-22T04:39:18;102072.0;;;17.54;71.47
33913;BME280;20200;52.084;5.224;2022-07-22T04:41:05;102069.0;;;17.57;71.61
33913;BME280;20200;52.084;5.224;2022-07-22T04:44:37;102068.0;;;17.7;71.52
33913;BME280;20200;52.084;5.224;2022-07-22T04:46:24;102066.0;;;17.75;71.59
33913;BME280;20200;52.084;5.224;2022-07-22T04:48:11;102066.0;;;17.77;71.73
33913;BME280;20200;52.084;5.224;2022-07-22T04:49:57;102061.0;;;17.78;71.98
33913;BME280;20200;52.084;5.224;2022-07-22T04:51:43;102058.0;;;17.86;71.95
33913;BME280;20200;52.084;5.224;2022-07-22T04:53:31;102065.0;;;17.77;72.74
33913;BME280;20200;52.084;5.224;2022-07-22T04:57:03;102061.0;;;17.86;72.41
33913;BME280;20200;52.084;5.224;2022-07-22T04:58:51;102062.0;;;17.93;72.11
33913;BME280;20200;52.084;5.224;2022-07-22T05:00:38;102056.0;;;17.91;71.8
33913;BME280;20200;52.084;5.224;2022-07-22T05:02:24;102055.0;;;18.0;71.91
33913;BME280;20200;52.084;5.224;2022-07-22T05:04:10;102063.0;;;18.11;72.38
33913;BME280;20200;52.084;5.224;2022-07-22T05:07:45;102055.0;;;17.96;73.02
33913;BME280;20200;52.084;5.224;2022-07-22T05:09:31;102061.0;;;17.84;73.41
33913;BME280;20200;52.084;5.224;2022-07-22T05:11:18;102056.0;;;17.77;74.34
33913;BME280;20200;52.084;5.224;2022-07-22T05:13:04;102059.0;;;17.79;74.94
33913;BME280;20200;52.084;5.224;2022-07-22T05:14:51;102064.0;;;17.68;76.22
33913;BME280;20200;52.084;5.224;2022-07-22T05:16:38;102064.0;;;17.86;75.81
33913;BME280;20200;52.084;5.224;2022-07-22T05:20:12;102069.0;;;17.86;76.25
33913;BME280;20200;52.084;5.224;2022-07-22T05:21:58;102061.0;;;17.89;75.91
33913;BME280;20200;52.084;5.224;2022-07-22T05:23:44;102068.0;;;17.88;75.47
33913;BME280;20200;52.084;5.224;2022-07-22T05:25:31;102062.0;;;17.84;76.38
33913;BME280;20200;52.084;5.224;2022-07-22T05:27:18;102063.0;;;17.81;76.61
33913;BME280;20200;52.084;5.224;2022-07-22T05:29:05;102066.0;;;17.77;75.83
33913;BME280;20200;52.084;5.224;2022-07-22T05:32:38;102069.0;;;17.89;75.83
33913;BME280;20200;52.084;5.224;2022-07-22T05:34:24;102067.0;;;17.95;74.86
33913;BME280;20200;52.084;5.224;2022-07-22T05:36:10;102067.0;;;17.75;74.16
33913;BME280;20200;52.084;5.224;2022-07-22T05:37:58;102060.0;;;18.02;73.58
33913;BME280;20200;52.084;5.224;2022-07-22T05:39:45;102066.0;;;18.21;73.33
33913;BME280;20200;52.084;5.224;2022-07-22T05:43:18;102066.0;;;18.07;73.41
33913;BME280;20200;52.084;5.224;2022-07-22T05:45:06;102070.0;;;18.2;72.5
33913;BME280;20200;52.084;5.224;2022-07-22T05:46:53;102080.0;;;18.21;72.3
33913;BME280;20200;52.084;5.224;2022-07-22T05:48:40;102076.0;;;18.34;71.36
33913;BME280;20200;52.084;5.224;2022-07-22T05:50:27;102077.0;;;18.32;70.41
33913;BME280;20200;52.084;5.224;2022-07-22T05:52:14;102073.0;;;18.45;70.28
33913;BME280;20200;52.084;5.224;2022-07-22T05:55:49;102073.0;;;18.43;69.78
33913;BME280;20200;52.084;5.224;2022-07-22T05:57:36;102078.0;;;18.5;69.08
33913;BME280;20200;52.084;5.224;2022-07-22T05:59:22;102075.0;;;18.5;69.66
33913;BME280;20200;52.084;5.224;2022-07-22T06:01:08;102080.0;;;18.64;69.72
33913;BME280;20200;52.084;5.224;2022-07-22T06:02:56;102078.0;;;18.61;70.23
33913;BME280;20200;52.084;5.224;2022-07-22T06:04:42;102077.0;;;18.53;71.24
33913;BME280;20200;52.084;5.224;2022-07-22T06:08:14;102074.0;;;18.62;69.89
33913;BME280;20200;52.084;5.224;2022-07-22T06:10:01;102074.0;;;18.71;68.83
33913;BME280;20200;52.084;5.224;2022-07-22T06:11:47;102073.0;;;18.61;67.55
33913;BME280;20200;52.084;5.224;2022-07-22T06:13:33;102077.0;;;18.71;66.33
33913;BME280;20200;52.084;5.224;2022-07-22T06:15:20;102073.0;;;18.81;66.49
33913;BME280;20200;52.084;5.224;2022-07-22T06:18:52;102077.0;;;18.8;65.89
33913;BME280;20200;52.084;5.224;2022-07-22T06:20:39;102076.0;;;18.93;65.5
33913;BME280;20200;52.084;5.224;2022-07-22T06:22:26;102078.0;;;18.93;64.78
33913;BME280;20200;52.084;5.224;2022-07-22T06:24:12;102078.0;;;18.98;64.33
33913;BME280;20200;52.084;5.224;2022-07-22T06:25:58;102069.0;;;18.95;65.08
33913;BME280;20200;52.084;5.224;2022-07-22T06:27:44;102065.0;;;19.02;65.24
33913;BME280;20200;52.084;5.224;2022-07-22T06:31:18;102067.0;;;19.09;64.69
33913;BME280;20200;52.084;5.224;2022-07-22T06:33:04;102065.0;;;19.04;63.87
33913;BME280;20200;52.084;5.224;2022-07-22T06:34:50;102063.0;;;18.97;63.37
33913;BME280;20200;52.084;5.224;2022-07-22T06:36:36;102065.0;;;19.02;64.08
33913;BME280;20200;52.084;5.224;2022-07-22T06:38:23;102062.0;;;18.93;64.1
33913;BME280;20200;52.084;5.224;2022-07-22T06:41:58;102066.0;;;18.86;63.81
33913;BME280;20200;52.084;5.224;2022-07-22T06:43:44;102068.0;;;18.95;62.99
33913;BME280;20200;52.084;5.224;2022-07-22T06:45:30;102060.0;;;19.05;63.15
33913;BME280;20200;52.084;5.224;2022-07-22T06:47:17;102060.0;;;19.18;62.97
33913;BME280;20200;52.084;5.224;2022-07-22T06:49:03;102055.0;;;19.34;63.2
33913;BME280;20200;52.084;5.224;2022-07-22T06:50:50;102056.0;;;19.28;62.99
33913;BME280;20200;52.084;5.224;2022-07-22T06:54:26;102055.0;;;19.38;63.75
33913;BME280;20200;52.084;5.224;2022-07-22T06:56:12;102058.0;;;19.43;63.49
33913;BME280;20200;52.084;5.224;2022-07-22T06:57:58;102062.0;;;19.59;63.61
33913;BME280;20200;52.084;5.224;2022-07-22T06:59:44;102066.0;;;19.63;64.6
33913;BME280;20200;52.084;5.224;2022-07-22T07:01:31;102059.0;;;19.64;63.14
33913;BME280;20200;52.084;5.224;2022-07-22T07:03:17;102058.0;;;19.73;62.34
33913;BME280;20200;52.084;5.224;2022-07-22T07:06:51;102058.0;;;19.78;62.89
33913;BME280;20200;52.084;5.224;2022-07-22T07:08:39;102055.0;;;19.8;63.28
33913;BME280;20200;52.084;5.224;2022-07-22T07:10:26;102058.0;;;19.86;63.37
33913;BME280;20200;52.084;5.224;2022-07-22T07:12:12;102060.0;;;20.0;62.96
33913;BME280;20200;52.084;5.224;2022-07-22T07:13:58;102062.0;;;20.0;63.4
33913;BME280;20200;52.084;5.224;2022-07-22T07:15:45;102060.0;;;20.0;63.13
33913;BME280;20200;52.084;5.224;2022-07-22T07:19:19;102056.0;;;19.77;62.1
33913;BME280;20200;52.084;5.224;2022-07-22T07:21:06;102053.0;;;19.82;61.49
33913;BME280;20200;52.084;5.224;2022-07-22T07:22:52;102053.0;;;20.0;62.25
33913;BME280;20200;52.084;5.224;2022-07-22T07:24:39;102057.0;;;20.0;62.36
33913;BME280;20200;52.084;5.224;2022-07-22T07:26:27;102059.0;;;20.0;60.16
33913;BME280;20200;52.084;5.224;2022-07-22T07:29:59;102060.0;;;20.18;60.15
33913;BME280;20200;52.084;5.224;2022-07-22T07:31:46;102061.0;;;20.0;59.87
33913;BME280;20200;52.084;5.224;2022-07-22T07:33:33;102059.0;;;20.12;59.47
33913;BME280;20200;52.084;5.224;2022-07-22T07:35:20;102056.0;;;20.2;60.36
33913;BME280;20200;52.084;5.224;2022-07-22T07:37:07;102062.0;;;20.11;57.63
33913;BME280;20200;52.084;5.224;2022-07-22T07:38:53;102057.0;;;19.86;57.95
33913;BME280;20200;52.084;5.224;2022-07-22T07:42:26;102057.0;;;20.2;57.65
33913;BME280;20200;52.084;5.224;2022-07-22T07:44:13;102055.0;;;20.34;59.75
33913;BME280;20200;52.084;5.224;2022-07-22T07:46:00;102053.0;;;20.36;60.04
33913;BME280;20200;52.084;5.224;2022-07-22T07:47:48;102051.0;;;20.25;58.7
33913;BME280;20200;52.084;5.224;2022-07-22T07:49:35;102053.0;;;20.31;58.38
33913;BME280;20200;52.084;5.224;2022-07-22T07:51:22;102059.0;;;20.13;59.21
33913;BME280;20200;52.084;5.224;2022-07-22T07:54:55;102058.0;;;20.16;58.83
33913;BME280;20200;52.084;5.224;2022-07-22T07:58:29;102057.0;;;20.2;58.47
33913;BME280;20200;52.084;5.224;2022-07-22T08:00:18;102057.0;;;20.23;57.75
33913;BME280;20200;52.084;5.224;2022-07-22T08:02:05;102059.0;;;20.22;57.76
33913;BME280;20200;52.084;5.224;2022-07-22T08:03:53;102057.0;;;20.14;58.08
33913;BME280;20200;52.084;5.224;2022-07-22T08:07:27;102056.0;;;19.97;58.73
33913;BME280;20200;52.084;5.224;2022-07-22T08:09:14;102057.0;;;19.7;59.16
33913;BME280;20200;52.084;5.224;2022-07-22T08:11:00;102058.0;;;20.03;58.94
33913;BME280;20200;52.084;5.224;2022-07-22T08:12:47;102055.0;;;20.18;58.67
33913;BME280;20200;52.084;5.224;2022-07-22T08:14:33;102051.0;;;20.29;58.85
33913;BME280;20200;52.084;5.224;2022-07-22T08:18:07;102055.0;;;20.03;59.28
33913;BME280;20200;52.084;5.224;2022-07-22T08:19:54;102056.0;;;20.0;58.8
33913;BME280;20200;52.084;5.224;2022-07-22T08:21:42;102056.0;;;20.27;58.54
33913;BME280;20200;52.084;5.224;2022-07-22T08:23:28;102051.0;;;20.25;58.83
33913;BME280;20200;52.084;5.224;2022-07-22T08:25:15;102044.0;;;20.45;57.91
33913;BME280;20200;52.084;5.224;2022-07-22T08:27:03;102037.0;;;20.55;58.67
33913;BME280;20200;52.084;5.224;2022-07-22T08:30:36;102042.0;;;20.66;57.81
33913;BME280;20200;52.084;5.224;2022-07-22T08:32:23;102046.0;;;20.86;58.99
33913;BME280;20200;52.084;5.224;2022-07-22T08:34:09;102049.0;;;20.73;56.77
33913;BME280;20200;52.084;5.224;2022-07-22T08:35:56;102043.0;;;20.96;56.58
33913;BME280;20200;52.084;5.224;2022-07-22T08:37:46;102040.0;;;20.94;53.8
33913;BME280;20200;52.084;5.224;2022-07-22T08:39:34;102039.0;;;20.68;55.32
33913;BME280;20200;52.084;5.224;2022-07-22T08:43:10;102039.0;;;20.84;55.48
33913;BME280;20200;52.084;5.224;2022-07-22T08:44:57;102044.0;;;20.78;54.59
33913;BME280;20200;52.084;5.224;2022-07-22T08:46:44;102040.0;;;20.34;55.57
33913;BME280;20200;52.084;5.224;2022-07-22T08:48:31;102034.0;;;20.5;56.06
33913;BME280;20200;52.084;5.224;2022-07-22T08:50:18;102025.0;;;20.89;55.14
33913;BME280;20200;52.084;5.224;2022-07-22T08:52:05;102026.0;;;20.86;55.36
33913;BME280;20200;52.084;5.224;2022-07-22T08:55:41;102028.0;;;21.0;54.45
33913;BME280;20200;52.084;5.224;2022-07-22T08:57:28;102026.0;;;21.02;53.8
33913;BME280;20200;52.084;5.224;2022-07-22T08:59:14;102024.0;;;21.24;54.29
33913;BME280;20200;52.084;5.224;2022-07-22T09:01:07;102019.0;;;21.41;53.38
33913;BME280;20200;52.084;5.224;2022-07-22T09:02:53;102018.0;;;21.5;53.71
33913;BME280;20200;52.084;5.224;2022-07-22T09:04:51;102014.0;;;21.53;51.5
33913;BME280;20200;52.084;5.224;2022-07-22T09:06:48;102015.0;;;21.73;52.0
33913;BME280;20200;52.084;5.224;2022-07-22T09:10:36;102020.0;;;21.51;51.15
33913;BME280;20200;52.084;5.224;2022-07-22T09:12:24;102013.0;;;21.59;51.35
33913;BME280;20200;52.084;5.224;2022-07-22T09:14:11;102015.0;;;21.33;51.61
33913;BME280;20200;52.084;5.224;2022-07-22T09:15:58;102015.0;;;21.5;50.91
33913;BME280;20200;52.084;5.224;2022-07-22T09:17:44;102016.0;;;21.64;52.74
33913;BME280;20200;52.084;5.224;2022-07-22T09:19:33;102017.0;;;21.71;52.23
33913;BME280;20200;52.084;5.224;2022-07-22T09:21:20;102016.0;;;21.85;51.42
33913;BME280;20200;52.084;5.224;2022-07-22T09:24:57;102022.0;;;22.08;50.83
33913;BME280;20200;52.084;5.224;2022-07-22T09:26:44;102022.0;;;22.18;49.4
33913;BME280;20200;52.084;5.224;2022-07-22T09:28:30;102024.0;;;22.06;49.6
33913;BME280;20200;52.084;5.224;2022-07-22T09:30:18;102025.0;;;21.99;49.48
33913;BME280;20200;52.084;5.224;2022-07-22T09:32:06;102021.0;;;21.59;50.59
33913;BME280;20200;52.084;5.224;2022-07-22T09:33:54;102025.0;;;22.08;50.56
33913;BME280;20200;52.084;5.224;2022-07-22T09:37:28;102015.0;;;22.22;50.71
33913;BME280;20200;52.084;5.224;2022-07-22T09:39:24;102019.0;;;22.39;51.25
33913;BME280;20200;52.084;5.224;2022-07-22T09:41:14;102015.0;;;22.34;49.99
33913;BME280;20200;52.084;5.224;2022-07-22T09:43:02;102016.0;;;22.44;51.36
33913;BME280;20200;52.084;5.224;2022-07-22T09:44:50;102019.0;;;22.39;49.32
33913;BME280;20200;52.084;5.224;2022-07-22T09:46:37;102012.0;;;22.47;51.14
33913;BME280;20200;52.084;5.224;2022-07-22T09:50:16;102011.0;;;22.58;49.21
33913;BME280;20200;52.084;5.224;2022-07-22T09:52:06;102007.0;;;22.45;49.99
33913;BME280;20200;52.084;5.224;2022-07-22T09:53:53;102009.0;;;22.58;50.4
33913;BME280;20200;52.084;5.224;2022-07-22T09:55:41;102015.0;;;22.81;49.33
33913;BME280;20200;52.084;5.224;2022-07-22T09:57:27;102014.0;;;23.01;48.24
33913;BME280;20200;52.084;5.224;2022-07-22T09:59:14;102003.0;;;23.1;46.93
33913;BME280;20200;52.084;5.224;2022-07-22T10:02:54;102003.0;;;23.07;47.51
33913;BME280;20200;52.084;5.224;2022-07-22T10:04:44;102005.0;;;23.12;47.58
33913;BME280;20200;52.084;5.224;2022-07-22T10:06:33;102006.0;;;23.18;47.1
33913;BME280;20200;52.084;5.224;2022-07-22T10:08:24;102014.0;;;22.91;45.75
33913;BME280;20200;52.084;5.224;2022-07-22T10:10:15;102015.0;;;22.83;46.11
33913;BME280;20200;52.084;5.224;2022-07-22T10:12:02;102013.0;;;22.81;45.47
33913;BME280;20200;52.084;5.224;2022-07-22T10:13:48;102024.0;;;22.47;47.63
33913;BME280;20200;52.084;5.224;2022-07-22T10:17:24;102021.0;;;22.36;47.17
33913;BME280;20200;52.084;5.224;2022-07-22T10:19:11;102018.0;;;22.21;47.07
33913;BME280;20200;52.084;5.224;2022-07-22T10:21:03;102020.0;;;21.88;47.69
33913;BME280;20200;52.084;5.224;2022-07-22T10:22:53;102024.0;;;22.09;47.54
33913;BME280;20200;52.084;5.224;2022-07-22T10:24:59;102028.0;;;21.94;47.14
33913;BME280;20200;52.084;5.224;2022-07-22T10:26:47;102034.0;;;22.15;47.88
33913;BME280;20200;52.084;5.224;2022-07-22T10:28:36;102035.0;;;22.14;49.31
33913;BME280;20200;52.084;5.224;2022-07-22T10:30:26;102020.0;;;22.01;47.5
33913;BME280;20200;52.084;5.224;2022-07-22T10:34:09;102017.0;;;21.72;49.02
33913;BME280;20200;52.084;5.224;2022-07-22T10:35:58;102016.0;;;21.81;47.89
33913;BME280;20200;52.084;5.224;2022-07-22T10:37:48;102017.0;;;22.02;47.11
33913;BME280;20200;52.084;5.224;2022-07-22T10:40:09;102015.0;;;21.78;48.17
33913;BME280;20200;52.084;5.224;2022-07-22T10:41:56;102019.0;;;21.91;48.17
33913;BME280;20200;52.084;5.224;2022-07-22T10:43:46;102022.0;;;21.67;47.58
33913;BME280;20200;52.084;5.224;2022-07-22T10:45:35;102020.0;;;21.95;48.17
33913;BME280;20200;52.084;5.224;2022-07-22T10:47:51;102017.0;;;22.07;47.73
33913;BME280;20200;52.084;5.224;2022-07-22T10:49:38;102019.0;;;22.18;46.4
33913;BME280;20200;52.084;5.224;2022-07-22T10:51:26;102019.0;;;21.73;48.1
33913;BME280;20200;52.084;5.224;2022-07-22T10:55:18;102017.0;;;21.9;47.62
33913;BME280;20200;52.084;5.224;2022-07-22T10:57:05;102017.0;;;22.27;47.68
33913;BME280;20200;52.084;5.224;2022-07-22T10:58:54;102015.0;;;22.12;48.1
33913;BME280;20200;52.084;5.224;2022-07-22T11:00:43;102014.0;;;22.37;46.4
33913;BME280;20200;52.084;5.224;2022-07-22T11:02:30;102012.0;;;22.33;46.76
33913;BME280;20200;52.084;5.224;2022-07-22T11:04:19;102008.0;;;22.71;46.69
33913;BME280;20200;52.084;5.224;2022-07-22T11:06:13;102007.0;;;22.87;46.72
33913;BME280;20200;52.084;5.224;2022-07-22T11:08:09;102000.0;;;23.07;46.45
33913;BME280;20200;52.084;5.224;2022-07-22T11:11:55;101996.0;;;23.21;46.33
33913;BME280;20200;52.084;5.224;2022-07-22T11:13:44;101997.0;;;23.43;44.92
33913;BME280;20200;52.084;5.224;2022-07-22T11:15:31;101996.0;;;23.55;44.87